Time;durP1;ratioP1;P1;durP2;ratioP2;P2;SDS_P1;SDS_P2;PMS_P1;PMS_P2;Temp;Humidity;BMP_temperature;BMP_pressure;BME280_temperature;BME280_humidity;BME280_pressure;Samples;Min_cycle;Max_cycle;Signal;HPM_P1;HPM_P2
2023/07/22 00:03:40;;;;;;;17.17;6.80;;;30.70;76.60;;;;;;6214629;23;20060;-72
2023/07/22 00:06:07;;;;;;;20.08;7.85;;;30.70;77.90;;;;;;6214345;23;20005;-72
2023/07/22 00:08:34;;;;;;;17.58;6.70;;;30.70;78.30;;;;;;6214423;23;20009;-72
2023/07/22 00:10:59;;;;;;;16.75;7.13;;;30.70;78.20;;;;;;6214471;23;20000;-72
2023/07/22 00:13:26;;;;;;;21.13;6.30;;;30.70;78.40;;;;;;6214404;23;20062;-72
2023/07/22 00:15:53;;;;;;;18.40;6.22;;;30.70;78.30;;;;;;6214304;23;20491;-72
2023/07/22 00:18:19;;;;;;;17.70;6.97;;;30.60;78.70;;;;;;6214211;23;20326;-73
2023/07/22 00:20:45;;;;;;;22.98;7.43;;;30.60;78.90;;;;;;6214341;23;19996;-72
2023/07/22 00:23:10;;;;;;;17.58;6.70;;;30.60;79.00;;;;;;6214197;23;20015;-72
2023/07/22 00:25:36;;;;;;;22.20;7.10;;;30.60;79.00;;;;;;6214013;23;20000;-71
2023/07/22 00:28:04;;;;;;;13.98;6.25;;;30.60;79.20;;;;;;6214609;23;20401;-72
2023/07/22 00:30:29;;;;;;;16.27;6.47;;;30.60;79.20;;;;;;6214148;23;20271;-72
2023/07/22 00:32:55;;;;;;;20.42;7.75;;;30.60;79.20;;;;;;6213954;23;20011;-72
2023/07/22 00:35:21;;;;;;;20.08;7.25;;;30.60;79.30;;;;;;6214304;23;20001;-73
2023/07/22 00:37:47;;;;;;;21.27;7.60;;;30.60;79.30;;;;;;6214260;23;20004;-72
2023/07/22 00:40:13;;;;;;;20.98;7.32;;;30.60;79.30;;;;;;6214354;23;20080;-72
2023/07/22 00:42:41;;;;;;;20.55;7.18;;;30.60;79.10;;;;;;6214108;23;20335;-71
2023/07/22 00:45:08;;;;;;;21.35;6.82;;;30.60;79.20;;;;;;6214426;23;20009;-70
2023/07/22 00:47:35;;;;;;;14.50;6.60;;;30.50;79.20;;;;;;6214306;23;20339;-72
2023/07/22 00:50:06;;;;;;;20.85;7.93;;;30.50;79.60;;;;;;6214369;23;20342;-73
2023/07/22 00:52:33;;;;;;;19.45;6.85;;;30.50;79.50;;;;;;6213708;23;20007;-72
2023/07/22 00:54:59;;;;;;;21.63;7.72;;;30.60;80.00;;;;;;6214171;23;20000;-72
2023/07/22 00:57:24;;;;;;;16.48;6.40;;;30.50;79.70;;;;;;6214069;23;20469;-72
2023/07/22 00:59:50;;;;;;;16.27;6.80;;;30.60;79.60;;;;;;6214406;23;20001;-72
2023/07/22 01:02:17;;;;;;;16.95;7.93;;;30.60;79.60;;;;;;6213884;23;20020;-72
2023/07/22 01:04:43;;;;;;;17.98;7.28;;;30.60;79.90;;;;;;6214031;23;20431;-71
2023/07/22 01:07:10;;;;;;;23.50;8.23;;;30.50;79.40;;;;;;6187595;23;20000;-72
2023/07/22 01:09:43;;;;;;;23.08;8.25;;;30.50;79.60;;;;;;6214163;23;20001;-73
2023/07/22 01:12:09;;;;;;;18.65;7.47;;;30.50;79.30;;;;;;6213804;23;20084;-72
2023/07/22 01:14:40;;;;;;;20.90;8.10;;;30.60;79.10;;;;;;6214005;23;20063;-72
2023/07/22 01:17:08;;;;;;;24.65;7.78;;;30.50;78.80;;;;;;6187288;23;20335;-72
2023/07/22 01:19:35;;;;;;;17.63;7.53;;;30.50;78.50;;;;;;6213352;23;20005;-72
2023/07/22 01:22:02;;;;;;;16.30;7.43;;;30.60;78.20;;;;;;6187242;23;20057;-72
2023/07/22 01:24:32;;;;;;;20.58;7.80;;;30.60;77.90;;;;;;6213878;23;20004;-72
2023/07/22 01:26:58;;;;;;;22.00;7.05;;;30.50;77.80;;;;;;6214316;23;19997;-72
2023/07/22 01:29:24;;;;;;;18.67;7.07;;;30.50;77.80;;;;;;6214030;23;20460;-71
2023/07/22 01:31:55;;;;;;;16.73;7.18;;;30.50;77.90;;;;;;6213924;23;20027;-72
2023/07/22 01:34:21;;;;;;;21.92;7.40;;;30.40;77.50;;;;;;6213553;23;20009;-71
2023/07/22 01:36:48;;;;;;;21.83;8.00;;;30.40;77.80;;;;;;6213741;23;20054;-73
2023/07/22 01:39:15;;;;;;;20.63;7.88;;;30.40;78.00;;;;;;6213759;23;20005;-71
2023/07/22 01:41:41;;;;;;;19.80;8.07;;;30.40;78.00;;;;;;6213464;23;20023;-70
2023/07/22 01:44:07;;;;;;;21.35;7.88;;;30.40;77.80;;;;;;6213543;23;20015;-73
2023/07/22 01:46:34;;;;;;;21.23;8.23;;;30.40;77.90;;;;;;6213764;23;20011;-73
2023/07/22 01:49:01;;;;;;;20.73;8.00;;;30.40;78.10;;;;;;6214000;23;20009;-72
2023/07/22 01:51:27;;;;;;;20.73;7.72;;;30.40;77.80;;;;;;6213621;23;19997;-73
2023/07/22 01:53:53;;;;;;;18.00;7.50;;;30.40;78.00;;;;;;6213726;23;20000;-72
2023/07/22 01:56:22;;;;;;;21.17;7.55;;;30.40;78.10;;;;;;6213547;23;20012;-72
2023/07/22 01:58:47;;;;;;;29.15;7.90;;;30.40;77.60;;;;;;6213520;23;20016;-72
2023/07/22 02:01:16;;;;;;;16.65;7.65;;;30.40;78.10;;;;;;6187437;23;20332;-73
2023/07/22 02:03:42;;;;;;;27.33;8.15;;;30.40;77.70;;;;;;6213461;23;20017;-72
2023/07/22 02:06:08;;;;;;;20.65;7.82;;;30.50;78.40;;;;;;6214646;23;20048;-72
2023/07/22 02:08:35;;;;;;;12.85;6.57;;;30.40;78.10;;;;;;6215462;23;20009;-73
2023/07/22 02:11:06;;;;;;;19.20;7.53;;;30.40;78.30;;;;;;6215491;23;20004;-72
2023/07/22 02:13:33;;;;;;;19.17;6.88;;;30.40;78.40;;;;;;6215441;23;20144;-72
2023/07/22 02:16:00;;;;;;;20.45;7.05;;;30.40;78.30;;;;;;6215594;23;20004;-72
2023/07/22 02:18:26;;;;;;;24.33;8.07;;;30.40;78.40;;;;;;6215450;23;20346;-72
2023/07/22 02:20:52;;;;;;;18.88;7.53;;;30.40;78.10;;;;;;6215317;23;20004;-72
2023/07/22 02:23:18;;;;;;;18.77;7.45;;;30.40;78.10;;;;;;6215297;23;20431;-73
2023/07/22 02:25:48;;;;;;;22.38;7.78;;;30.40;78.20;;;;;;6215596;23;20048;-71
2023/07/22 02:28:15;;;;;;;22.83;7.10;;;30.40;78.40;;;;;;6215390;23;20011;-72
2023/07/22 02:30:41;;;;;;;17.70;7.43;;;30.40;78.50;;;;;;6215185;23;20047;-72
2023/07/22 02:33:07;;;;;;;16.95;7.15;;;30.40;78.40;;;;;;6215312;23;20008;-73
2023/07/22 02:35:33;;;;;;;18.63;6.85;;;30.40;78.60;;;;;;6215291;23;20008;-72
2023/07/22 02:37:59;;;;;;;17.88;6.95;;;30.40;78.50;;;;;;6215608;23;20004;-73
2023/07/22 02:40:24;;;;;;;22.17;7.45;;;30.30;78.70;;;;;;6215469;23;20009;-72
2023/07/22 02:42:50;;;;;;;22.63;7.72;;;30.30;78.90;;;;;;6215211;23;20501;-72
2023/07/22 02:45:16;;;;;;;22.83;7.55;;;30.30;79.20;;;;;;6215053;23;19996;-73
2023/07/22 02:47:42;;;;;;;21.00;7.72;;;30.30;79.10;;;;;;6215403;23;20016;-73
2023/07/22 02:50:08;;;;;;;17.45;7.18;;;30.30;79.40;;;;;;6215214;23;19997;-73
2023/07/22 02:52:35;;;;;;;23.00;7.50;;;30.30;79.60;;;;;;6214960;23;20004;-71
2023/07/22 02:55:18;;;;;;;23.48;7.45;;;30.30;79.90;;;;;;6214915;23;20001;-73
2023/07/22 02:57:44;;;;;;;20.73;7.38;;;30.30;80.30;;;;;;6215054;23;20020;-72
2023/07/22 03:00:13;;;;;;;22.10;7.50;;;30.20;80.70;;;;;;6215208;23;20525;-73
2023/07/22 03:02:41;;;;;;;21.60;7.43;;;30.20;80.70;;;;;;6214791;23;20056;-73
2023/07/22 03:05:08;;;;;;;22.83;7.40;;;30.20;81.20;;;;;;6215386;23;20000;-73
2023/07/22 03:07:38;;;;;;;19.13;7.25;;;30.10;81.50;;;;;;6215116;23;20324;-72
2023/07/22 03:10:08;;;;;;;19.73;7.47;;;30.10;82.30;;;;;;6215287;23;20007;-73
2023/07/22 03:12:34;;;;;;;21.70;7.85;;;30.10;82.40;;;;;;6215152;23;20031;-74
2023/07/22 03:15:00;;;;;;;18.92;7.85;;;30.00;83.00;;;;;;6214868;23;20001;-73
2023/07/22 03:17:26;;;;;;;20.40;7.45;;;30.10;83.30;;;;;;6215192;23;20035;-73
2023/07/22 03:19:52;;;;;;;21.45;7.93;;;30.00;83.80;;;;;;6215186;23;19997;-73
2023/07/22 03:22:18;;;;;;;21.40;8.45;;;30.00;84.00;;;;;;6215122;23;20005;-73
2023/07/22 03:24:45;;;;;;;24.70;8.10;;;29.90;84.20;;;;;;6214990;23;20330;-73
2023/07/22 03:27:12;;;;;;;20.35;7.90;;;29.90;84.50;;;;;;6215110;23;20044;-73
2023/07/22 03:29:38;;;;;;;21.92;8.30;;;29.90;84.70;;;;;;6214553;23;20001;-73
2023/07/22 03:32:04;;;;;;;24.85;7.90;;;29.90;85.10;;;;;;6215219;23;20000;-73
2023/07/22 03:34:31;;;;;;;18.02;7.53;;;29.80;85.30;;;;;;6214908;23;20355;-73
2023/07/22 03:36:57;;;;;;;23.65;8.85;;;29.80;85.40;;;;;;6214730;23;19996;-73
2023/07/22 03:39:23;;;;;;;26.58;7.57;;;29.80;85.50;;;;;;6214934;23;20067;-72
2023/07/22 03:41:49;;;;;;;23.13;7.95;;;29.80;85.80;;;;;;6188061;23;20012;-73
2023/07/22 03:44:14;;;;;;;23.05;7.93;;;29.80;86.00;;;;;;6214904;23;20007;-73
2023/07/22 03:46:40;;;;;;;22.15;8.05;;;29.80;86.10;;;;;;6214758;23;20023;-73
2023/07/22 03:49:06;;;;;;;23.90;7.10;;;29.80;86.40;;;;;;6188108;23;20008;-73
2023/07/22 03:51:33;;;;;;;21.40;8.98;;;29.80;86.50;;;;;;6215054;23;20003;-73
2023/07/22 03:53:58;;;;;;;18.75;7.32;;;29.80;86.50;;;;;;6214810;23;20036;-73
2023/07/22 03:56:24;;;;;;;19.90;7.65;;;29.80;86.60;;;;;;6214517;23;20012;-74
2023/07/22 03:58:51;;;;;;;17.77;8.48;;;29.80;86.80;;;;;;6214815;23;20016;-73
2023/07/22 04:01:16;;;;;;;20.67;8.65;;;29.80;86.90;;;;;;6214668;23;20334;-71
2023/07/22 04:03:42;;;;;;;18.45;8.35;;;29.80;87.00;;;;;;6214602;23;20008;-73
2023/07/22 04:06:08;;;;;;;23.60;7.75;;;29.80;87.10;;;;;;6215067;23;20000;-73
2023/07/22 04:08:34;;;;;;;20.48;7.68;;;29.80;87.10;;;;;;6214325;23;20008;-72
2023/07/22 04:10:59;;;;;;;22.45;8.63;;;29.80;87.30;;;;;;6214434;23;20000;-73
2023/07/22 04:13:26;;;;;;;20.95;7.85;;;29.80;87.40;;;;;;6214645;23;20005;-73
2023/07/22 04:15:52;;;;;;;28.95;8.50;;;29.80;87.10;;;;;;6214787;23;20146;-73
2023/07/22 04:18:20;;;;;;;19.08;7.97;;;29.80;87.30;;;;;;6214663;23;20438;-72
2023/07/22 04:20:50;;;;;;;24.92;8.20;;;29.80;87.30;;;;;;6214764;23;20067;-74
2023/07/22 04:23:16;;;;;;;21.48;7.68;;;29.80;87.30;;;;;;6214602;23;20389;-72
2023/07/22 04:25:47;;;;;;;17.60;7.95;;;29.80;87.30;;;;;;6214520;23;20072;-72
2023/07/22 04:28:13;;;;;;;20.17;8.02;;;29.80;87.10;;;;;;6214389;23;20004;-73
2023/07/22 04:30:39;;;;;;;24.75;8.77;;;29.80;87.20;;;;;;6214295;23;20423;-72
2023/07/22 04:33:05;;;;;;;24.48;8.13;;;29.80;86.80;;;;;;6214335;23;20001;-72
2023/07/22 04:35:33;;;;;;;18.00;7.80;;;29.90;87.00;;;;;;6214419;23;20007;-72
2023/07/22 04:37:58;;;;;;;20.75;8.02;;;29.90;86.70;;;;;;6214308;23;20008;-71
2023/07/22 04:40:25;;;;;;;26.48;7.68;;;29.90;86.60;;;;;;6214396;23;20055;-73
2023/07/22 04:42:51;;;;;;;18.60;7.55;;;29.90;86.50;;;;;;6187476;23;20098;-73
2023/07/22 04:45:18;;;;;;;27.08;8.10;;;29.90;86.30;;;;;;6214607;23;20092;-74
2023/07/22 04:47:46;;;;;;;25.25;8.32;;;29.90;86.10;;;;;;6214673;23;20074;-72
2023/07/22 04:50:13;;;;;;;20.88;7.55;;;30.00;86.00;;;;;;6214496;23;20488;-74
2023/07/22 04:52:42;;;;;;;24.83;7.85;;;30.00;85.30;;;;;;6214289;23;20070;-73
2023/07/22 04:55:09;;;;;;;23.20;7.97;;;30.10;85.10;;;;;;6214453;23;20404;-74
2023/07/22 04:57:38;;;;;;;25.05;7.90;;;30.10;85.50;;;;;;6214548;23;20012;-73
2023/07/22 05:00:04;;;;;;;19.05;7.22;;;30.10;84.50;;;;;;6214189;23;20366;-72
2023/07/22 05:02:31;;;;;;;17.65;7.07;;;30.20;84.40;;;;;;6214082;23;20374;-72
2023/07/22 05:04:57;;;;;;;22.10;6.97;;;30.20;84.00;;;;;;6214205;23;20005;-73
2023/07/22 05:07:23;;;;;;;17.58;7.43;;;30.30;83.90;;;;;;6214359;23;20067;-73
2023/07/22 05:09:49;;;;;;;17.73;7.57;;;30.30;83.60;;;;;;6214137;23;20055;-72
2023/07/22 05:12:15;;;;;;;18.52;7.63;;;30.30;83.60;;;;;;6214636;23;20370;-73
2023/07/22 05:14:40;;;;;;;20.30;7.65;;;30.40;83.40;;;;;;6214164;23;20031;-74
2023/07/22 05:17:06;;;;;;;19.55;7.55;;;30.40;82.90;;;;;;6214196;23;20032;-73
2023/07/22 05:19:32;;;;;;;21.77;8.00;;;30.50;82.80;;;;;;6214348;23;20360;-74
2023/07/22 05:21:58;;;;;;;25.08;8.18;;;30.60;82.10;;;;;;6187258;23;20012;-72
2023/07/22 05:24:23;;;;;;;19.17;7.95;;;30.80;81.60;;;;;;6214242;23;20032;-72
2023/07/22 05:26:49;;;;;;;18.02;7.97;;;30.90;80.90;;;;;;6214115;23;19997;-73
2023/07/22 05:29:15;;;;;;;20.65;6.47;;;31.20;80.30;;;;;;6214543;23;20438;-73
2023/07/22 05:31:41;;;;;;;20.58;7.57;;;31.40;79.30;;;;;;6214214;23;19998;-73
2023/07/22 05:34:07;;;;;;;22.17;7.78;;;31.70;78.80;;;;;;6214101;23;20115;-73
2023/07/22 05:36:32;;;;;;;19.75;7.40;;;32.00;77.90;;;;;;6213988;23;20012;-73
2023/07/22 05:38:58;;;;;;;20.83;7.85;;;32.30;77.20;;;;;;6214439;23;20004;-72
2023/07/22 05:41:24;;;;;;;25.95;7.82;;;32.40;76.50;;;;;;6216146;23;20015;-72
2023/07/22 05:43:50;;;;;;;18.77;7.68;;;32.60;75.80;;;;;;6215804;23;20009;-73
2023/07/22 05:46:15;;;;;;;23.02;7.97;;;32.90;75.10;;;;;;6216356;23;20032;-73
2023/07/22 05:48:41;;;;;;;17.65;7.47;;;33.10;74.50;;;;;;6189169;23;20005;-73
2023/07/22 05:51:07;;;;;;;25.45;8.20;;;33.30;74.00;;;;;;6216294;23;20004;-74
2023/07/22 05:53:33;;;;;;;23.48;7.13;;;33.60;73.50;;;;;;6216074;23;19997;-73
2023/07/22 05:55:59;;;;;;;22.85;7.43;;;33.80;72.60;;;;;;6216160;23;20038;-73
2023/07/22 05:58:24;;;;;;;21.50;7.88;;;33.90;72.60;;;;;;6215992;23;19997;-74
2023/07/22 06:00:51;;;;;;;24.25;7.15;;;34.00;71.40;;;;;;6216167;23;20012;-73
2023/07/22 06:03:17;;;;;;;18.75;7.03;;;34.10;71.10;;;;;;6215373;23;20451;-73
2023/07/22 06:05:43;;;;;;;21.85;7.30;;;34.30;70.50;;;;;;6215801;23;20000;-74
2023/07/22 06:08:09;;;;;;;22.38;8.32;;;34.50;69.60;;;;;;6216276;23;20024;-73
2023/07/22 06:10:37;;;;;;;18.92;7.25;;;34.60;69.00;;;;;;6216023;23;20426;-74
2023/07/22 06:13:03;;;;;;;18.27;7.53;;;34.80;68.40;;;;;;6215582;23;20288;-73
2023/07/22 06:15:29;;;;;;;24.83;7.45;;;35.00;67.50;;;;;;6215864;23;20031;-74
2023/07/22 06:17:55;;;;;;;22.58;7.15;;;35.20;66.90;;;;;;6189201;23;20013;-73
2023/07/22 06:20:21;;;;;;;17.92;6.63;;;35.40;66.30;;;;;;6215353;23;20012;-74
2023/07/22 06:22:47;;;;;;;19.23;7.20;;;35.50;65.80;;;;;;6215698;23;20012;-73
2023/07/22 06:25:12;;;;;;;26.15;6.68;;;35.70;65.00;;;;;;6215901;23;20000;-73
2023/07/22 06:27:38;;;;;;;23.02;7.53;;;35.70;64.60;;;;;;6215904;23;20011;-73
2023/07/22 06:30:05;;;;;;;24.02;7.50;;;35.80;64.20;;;;;;6215632;23;20075;-73
2023/07/22 06:32:30;;;;;;;26.65;7.22;;;35.90;63.70;;;;;;6215400;23;20004;-73
2023/07/22 06:34:57;;;;;;;16.20;6.63;;;35.90;63.40;;;;;;6215640;23;20005;-73
2023/07/22 06:37:24;;;;;;;22.58;7.18;;;36.10;63.40;;;;;;6215830;23;20111;-73
2023/07/22 06:39:50;;;;;;;24.23;7.72;;;36.10;62.90;;;;;;6215626;23;20064;-73
2023/07/22 06:42:15;;;;;;;17.98;7.32;;;36.20;62.70;;;;;;6215505;23;20043;-73
2023/07/22 06:44:41;;;;;;;26.30;7.15;;;36.20;62.80;;;;;;6215551;23;20375;-73
2023/07/22 06:47:07;;;;;;;18.70;6.03;;;36.20;63.00;;;;;;6215636;23;20000;-74
2023/07/22 06:49:33;;;;;;;26.70;7.10;;;36.20;62.80;;;;;;6214844;23;20032;-73
2023/07/22 06:51:58;;;;;;;22.23;7.60;;;35.90;63.00;;;;;;6215076;23;20327;-74
2023/07/22 06:54:24;;;;;;;19.67;7.15;;;35.60;63.80;;;;;;6215090;23;20458;-73
2023/07/22 06:56:50;;;;;;;26.10;7.80;;;35.30;64.40;;;;;;6215298;23;19996;-74
2023/07/22 06:59:15;;;;;;;26.40;7.55;;;35.00;64.80;;;;;;6215521;23;20001;-73
2023/07/22 07:01:41;;;;;;;21.88;6.35;;;34.80;65.40;;;;;;6214943;23;20013;-74
2023/07/22 07:04:07;;;;;;;25.70;6.63;;;34.60;66.20;;;;;;6214893;23;20009;-74
2023/07/22 07:06:33;;;;;;;18.10;6.88;;;34.40;67.30;;;;;;6215010;23;20075;-74
2023/07/22 07:09:00;;;;;;;23.17;6.90;;;34.20;67.10;;;;;;6215276;23;20358;-73
2023/07/22 07:11:26;;;;;;;20.05;7.70;;;34.00;67.30;;;;;;6215102;23;20038;-73
2023/07/22 07:13:52;;;;;;;19.42;6.90;;;33.80;68.00;;;;;;6215357;23;20461;-74
2023/07/22 07:16:27;;;;;;;19.08;7.43;;;33.60;68.70;;;;;;6214867;23;20000;-74
2023/07/22 07:18:54;;;;;;;20.45;6.13;;;33.50;69.60;;;;;;6188286;23;20088;-74
2023/07/22 07:21:20;;;;;;;20.20;6.28;;;33.40;70.30;;;;;;6215075;23;20041;-73
2023/07/22 07:23:47;;;;;;;23.52;5.93;;;33.20;71.00;;;;;;6215067;23;20012;-74
2023/07/22 07:26:13;;;;;;;18.45;6.63;;;33.10;71.40;;;;;;6214871;23;20047;-72
2023/07/22 07:28:39;;;;;;;18.98;6.43;;;33.20;71.60;;;;;;6214958;23;19996;-74
2023/07/22 07:31:05;;;;;;;21.83;6.63;;;33.30;71.30;;;;;;6214935;23;20004;-73
2023/07/22 07:33:30;;;;;;;21.92;6.75;;;33.50;70.90;;;;;;6214913;23;20429;-73
2023/07/22 07:35:56;;;;;;;20.92;6.47;;;33.50;71.00;;;;;;6214967;23;19996;-75
2023/07/22 07:38:22;;;;;;;21.05;6.55;;;33.50;70.80;;;;;;6215246;23;20047;-74
2023/07/22 07:40:59;;;;;;;20.52;6.57;;;33.60;70.70;;;;;;6215171;23;20047;-73
2023/07/22 07:43:26;;;;;;;22.60;6.47;;;33.60;70.70;;;;;;6214994;23;20075;-73
2023/07/22 07:46:18;;;;;;;19.13;6.40;;;33.60;70.80;;;;;;6215170;23;20032;-72
2023/07/22 07:48:47;;;;;;;19.33;6.30;;;33.60;71.30;;;;;;6214690;23;20385;-73
2023/07/22 07:51:14;;;;;;;16.13;6.55;;;33.50;70.90;;;;;;6215432;23;20008;-74
2023/07/22 07:53:41;;;;;;;22.42;6.80;;;33.50;71.10;;;;;;6215625;23;20115;-73
2023/07/22 07:56:08;;;;;;;20.00;7.13;;;33.50;71.00;;;;;;6214996;23;20076;-72
2023/07/22 07:58:34;;;;;;;22.58;6.72;;;33.50;71.00;;;;;;6214697;23;20391;-73
2023/07/22 08:01:00;;;;;;;19.67;6.97;;;33.60;71.20;;;;;;6215120;23;20091;-73
2023/07/22 08:03:25;;;;;;;16.75;6.22;;;33.70;70.60;;;;;;6214374;23;20100;-74
2023/07/22 08:05:51;;;;;;;19.63;6.53;;;33.80;70.30;;;;;;6214983;23;20000;-73
2023/07/22 08:08:17;;;;;;;19.65;6.22;;;33.90;69.60;;;;;;6214735;23;20017;-73
2023/07/22 08:10:44;;;;;;;21.33;6.70;;;34.10;69.30;;;;;;6214861;23;20008;-73
2023/07/22 08:13:10;;;;;;;16.15;5.85;;;34.10;69.20;;;;;;6215297;23;20032;-73
2023/07/22 08:15:36;;;;;;;22.83;7.03;;;34.20;69.10;;;;;;6215033;23;20004;-73
2023/07/22 08:18:03;;;;;;;18.23;7.03;;;34.20;68.60;;;;;;6214569;23;20008;-74
2023/07/22 08:20:30;;;;;;;22.33;6.70;;;34.30;68.20;;;;;;6214284;23;20458;-73
2023/07/22 08:22:56;;;;;;;29.27;7.43;;;34.40;67.80;;;;;;6214441;23;20347;-74
2023/07/22 08:25:22;;;;;;;22.70;7.38;;;34.40;67.40;;;;;;6214547;23;20003;-74
2023/07/22 08:27:47;;;;;;;27.08;7.38;;;34.50;67.20;;;;;;6214697;23;20000;-74
2023/07/22 08:30:13;;;;;;;19.88;6.97;;;34.50;67.10;;;;;;6214977;23;20036;-74
2023/07/22 08:32:39;;;;;;;19.00;6.95;;;34.50;66.90;;;;;;6214520;23;20003;-74
2023/07/22 08:35:05;;;;;;;19.77;6.68;;;34.60;66.50;;;;;;6214560;23;20007;-74
2023/07/22 08:37:31;;;;;;;27.00;6.93;;;34.50;67.20;;;;;;6214354;23;20071;-74
2023/07/22 08:39:57;;;;;;;19.35;7.05;;;34.40;66.50;;;;;;6214408;23;20090;-74
2023/07/22 08:42:25;;;;;;;23.23;6.63;;;34.40;66.40;;;;;;6213807;23;20009;-74
2023/07/22 08:44:56;;;;;;;18.10;6.25;;;34.40;66.10;;;;;;6214536;23;20371;-74
2023/07/22 08:47:24;;;;;;;20.92;7.00;;;34.30;65.60;;;;;;6214371;23;20454;-75
2023/07/22 08:49:53;;;;;;;21.60;6.90;;;34.30;66.00;;;;;;6214639;23;20083;-74
2023/07/22 08:52:19;;;;;;;15.10;6.55;;;34.30;65.40;;;;;;6214292;23;20067;-73
2023/07/22 08:54:46;;;;;;;23.27;7.00;;;34.20;65.20;;;;;;6213836;23;20028;-74
2023/07/22 08:57:12;;;;;;;17.02;6.75;;;34.20;64.60;;;;;;6214114;23;20390;-74
2023/07/22 08:59:38;;;;;;;20.63;6.68;;;34.10;64.60;;;;;;6214165;23;20001;-74
2023/07/22 09:02:05;;;;;;;19.50;7.13;;;34.10;64.60;;;;;;6214188;23;20071;-73
2023/07/22 09:04:30;;;;;;;22.58;7.93;;;34.10;64.70;;;;;;6213777;23;20016;-76
2023/07/22 09:06:57;;;;;;;17.80;7.20;;;34.10;64.60;;;;;;6214103;23;19997;-74
2023/07/22 09:09:24;;;;;;;17.58;6.85;;;34.10;64.70;;;;;;6214373;23;20009;-75
2023/07/22 09:11:51;;;;;;;22.75;7.35;;;34.10;64.80;;;;;;6214369;23;20107;-74
2023/07/22 09:14:19;;;;;;;20.20;6.90;;;34.10;64.60;;;;;;6214004;23;19996;-73
2023/07/22 09:16:45;;;;;;;20.50;6.75;;;34.20;64.30;;;;;;6214274;23;20035;-74
2023/07/22 09:19:11;;;;;;;22.88;7.03;;;34.30;64.00;;;;;;6214043;23;20005;-74
2023/07/22 09:21:37;;;;;;;22.88;7.35;;;34.40;63.60;;;;;;6213980;23;20012;-74
2023/07/22 09:24:23;;;;;;;21.17;6.95;;;34.40;63.00;;;;;;6214019;23;20013;-75
2023/07/22 09:26:48;;;;;;;22.20;7.40;;;34.40;62.00;;;;;;6214147;23;20032;-75
2023/07/22 09:29:14;;;;;;;20.27;6.82;;;34.50;62.40;;;;;;6213940;23;20000;-74
2023/07/22 09:31:51;;;;;;;20.20;7.43;;;34.50;62.10;;;;;;6213705;23;20067;-75
2023/07/22 09:34:17;;;;;;;21.40;7.45;;;34.60;61.30;;;;;;6213793;23;19997;-73
2023/07/22 09:36:53;;;;;;;29.13;7.18;;;34.70;60.80;;;;;;6214221;23;20257;-74
2023/07/22 09:39:19;;;;;;;20.75;6.80;;;34.60;60.80;;;;;;6214401;23;20003;-74
2023/07/22 09:41:45;;;;;;;15.25;6.30;;;34.60;60.70;;;;;;6214136;23;20008;-73
2023/07/22 09:44:12;;;;;;;18.75;6.72;;;34.60;60.50;;;;;;6213692;23;20015;-74
2023/07/22 09:46:37;;;;;;;14.35;6.15;;;34.70;59.90;;;;;;6213772;23;20008;-75
2023/07/22 09:49:08;;;;;;;18.90;6.45;;;34.70;59.70;;;;;;6213937;23;20339;-74
2023/07/22 09:51:38;;;;;;;15.65;7.05;;;34.70;59.40;;;;;;6213908;23;19996;-74
2023/07/22 09:54:05;;;;;;;21.35;7.28;;;34.70;59.20;;;;;;6213963;23;20000;-74
2023/07/22 09:56:32;;;;;;;23.95;8.40;;;34.80;58.90;;;;;;6213764;23;20498;-74
2023/07/22 09:59:07;;;;;;;20.52;7.57;;;34.70;58.80;;;;;;6214067;23;19997;-75
2023/07/22 10:01:35;;;;;;;22.60;9.23;;;34.80;57.90;;;;;;6213828;23;20011;-74
2023/07/22 10:04:04;;;;;;;18.80;9.63;;;34.90;57.30;;;;;;6213825;23;20020;-74
2023/07/22 10:06:30;;;;;;;22.98;9.73;;;34.90;56.50;;;;;;6213506;23;20001;-75
2023/07/22 10:08:57;;;;;;;22.10;9.13;;;35.00;56.50;;;;;;6214099;23;20509;-74
2023/07/22 10:11:25;;;;;;;29.70;10.93;;;35.00;56.20;;;;;;6214192;23;20012;-75
2023/07/22 10:13:52;;;;;;;28.67;10.18;;;34.90;56.10;;;;;;6213831;23;20009;-75
2023/07/22 10:16:19;;;;;;;25.55;9.85;;;35.00;56.00;;;;;;6214106;23;20029;-75
2023/07/22 10:18:46;;;;;;;23.45;8.32;;;35.00;56.10;;;;;;6213743;23;20098;-75
2023/07/22 10:21:13;;;;;;;19.55;7.57;;;35.00;56.30;;;;;;6213675;23;20001;-74
2023/07/22 10:23:40;;;;;;;19.63;6.72;;;35.10;56.70;;;;;;6213986;23;20012;-75
2023/07/22 10:26:06;;;;;;;16.83;6.65;;;35.00;57.20;;;;;;6214521;23;20004;-74
2023/07/22 10:28:33;;;;;;;16.00;6.28;;;35.00;57.30;;;;;;6216270;23;20016;-74
2023/07/22 10:30:59;;;;;;;22.52;6.28;;;35.10;57.70;;;;;;6216301;23;19997;-75
2023/07/22 10:33:26;;;;;;;18.77;6.72;;;35.10;58.00;;;;;;6216085;23;20000;-73
2023/07/22 10:36:06;;;;;;;21.60;7.07;;;35.10;58.20;;;;;;6215943;23;20001;-74
2023/07/22 10:38:33;;;;;;;14.95;6.05;;;35.20;59.80;;;;;;6216182;23;20087;-75
2023/07/22 10:40:59;;;;;;;19.73;6.70;;;35.20;59.70;;;;;;6216045;23;20096;-75
2023/07/22 10:43:29;;;;;;;19.45;6.53;;;35.20;60.20;;;;;;6215685;23;20012;-74
2023/07/22 10:45:57;;;;;;;19.90;6.60;;;35.30;60.80;;;;;;6215800;23;20000;-75
2023/07/22 10:48:27;;;;;;;19.30;6.00;;;35.30;61.60;;;;;;6216010;23;20342;-73
2023/07/22 10:51:05;;;;;;;19.00;6.90;;;35.30;60.70;;;;;;6189998;23;20008;-75
2023/07/22 10:53:31;;;;;;;17.80;6.28;;;35.40;61.10;;;;;;6215133;23;20053;-73
2023/07/22 10:56:19;;;;;;;21.67;6.75;;;35.50;61.20;;;;;;6215680;23;20078;-74
2023/07/22 10:58:44;;;;;;;19.23;5.85;;;35.60;60.60;;;;;;6215642;23;20437;-75
2023/07/22 11:01:28;;;;;;;14.70;5.78;;;35.50;61.40;;;;;;6215358;23;20119;-75
2023/07/22 11:04:32;;;;;;;16.48;6.20;;;35.60;61.50;;;;;;6215406;23;20063;-75
2023/07/22 11:06:58;;;;;;;;;;;35.50;61.60;;;;;;6216380;23;19997;-75
2023/07/22 11:09:27;;;;;;;20.27;6.47;;;35.40;61.90;;;;;;6216192;23;19908;-75
2023/07/22 11:11:56;;;;;;;23.65;6.97;;;35.40;62.20;;;;;;6215600;23;20012;-75
2023/07/22 11:14:23;;;;;;;25.08;7.78;;;35.40;62.30;;;;;;6215860;23;20039;-74
2023/07/22 11:16:49;;;;;;;20.45;6.18;;;35.50;62.20;;;;;;6215921;23;20007;-75
2023/07/22 11:19:21;;;;;;;22.13;6.80;;;35.50;61.80;;;;;;6215466;23;20000;-75
2023/07/22 11:21:48;;;;;;;20.17;6.25;;;35.40;61.80;;;;;;6215544;23;20386;-74
2023/07/22 11:24:16;;;;;;;20.55;6.35;;;35.40;61.70;;;;;;6215549;23;20103;-75
2023/07/22 11:26:42;;;;;;;22.13;6.97;;;35.30;61.70;;;;;;6215873;23;20308;-75
2023/07/22 11:29:09;;;;;;;19.65;7.15;;;35.40;61.30;;;;;;6215632;23;20004;-75
2023/07/22 11:31:42;;;;;;;20.33;6.10;;;35.50;61.30;;;;;;6215291;23;20326;-75
2023/07/22 11:34:16;;;;;;;25.13;6.18;;;35.50;60.90;;;;;;6215826;23;19997;-75
2023/07/22 11:36:42;;;;;;;21.15;6.38;;;35.50;59.80;;;;;;6215179;23;20378;-74
2023/07/22 11:39:13;;;;;;;15.45;5.68;;;35.50;60.80;;;;;;6215646;23;20004;-75
2023/07/22 11:41:43;;;;;;;20.85;6.55;;;35.50;60.60;;;;;;6215704;23;20032;-74
2023/07/22 11:44:13;;;;;;;16.80;5.93;;;35.50;60.60;;;;;;6215515;23;20288;-74
2023/07/22 11:46:54;;;;;;;20.10;6.13;;;35.50;59.80;;;;;;6215447;23;20567;-76
2023/07/22 11:49:24;;;;;;;23.30;6.90;;;35.40;59.30;;;;;;6215395;23;20001;-74
2023/07/22 11:51:49;;;;;;;15.48;5.72;;;35.30;60.30;;;;;;6215510;23;20126;-76
2023/07/22 11:54:17;;;;;;;24.38;6.65;;;35.40;60.80;;;;;;6215179;23;20435;-72
2023/07/22 11:56:43;;;;;;;20.33;6.35;;;35.40;60.80;;;;;;6215223;23;20004;-75
2023/07/22 11:59:08;;;;;;;20.77;6.22;;;35.50;61.10;;;;;;6215250;23;20074;-74
2023/07/22 12:01:34;;;;;;;19.00;6.82;;;35.50;60.90;;;;;;6215124;23;20435;-75
2023/07/22 12:04:00;;;;;;;23.27;6.47;;;35.50;61.20;;;;;;6215051;23;20024;-74
2023/07/22 12:06:27;;;;;;;18.80;6.70;;;35.40;61.30;;;;;;6214982;23;20419;-73
2023/07/22 12:08:53;;;;;;;20.70;6.38;;;35.40;61.50;;;;;;6215267;23;20001;-74
2023/07/22 12:11:20;;;;;;;21.30;5.97;;;35.40;61.30;;;;;;6215253;23;20008;-75
2023/07/22 12:13:50;;;;;;;22.63;7.45;;;35.40;61.10;;;;;;6214908;23;20001;-76
2023/07/22 12:16:23;;;;;;;24.17;6.68;;;35.30;61.10;;;;;;6214489;23;20036;-75
2023/07/22 12:18:49;;;;;;;21.90;5.68;;;35.30;61.20;;;;;;6215035;23;20186;-75
2023/07/22 12:21:15;;;;;;;17.50;6.28;;;35.30;61.20;;;;;;6215078;23;20102;-75
2023/07/22 12:23:42;;;;;;;18.70;6.03;;;35.20;61.00;;;;;;6214696;23;20139;-74
2023/07/22 12:26:08;;;;;;;22.98;7.20;;;35.40;61.10;;;;;;6214422;23;20330;-73
2023/07/22 12:28:34;;;;;;;17.80;6.25;;;35.40;60.50;;;;;;6213996;23;20032;-74
2023/07/22 12:31:00;;;;;;;23.55;7.22;;;35.40;60.30;;;;;;6214195;23;20001;-76
2023/07/22 12:33:26;;;;;;;18.38;6.68;;;35.40;60.10;;;;;;6214275;23;20047;-74
2023/07/22 12:35:56;;;;;;;23.52;6.05;;;35.40;59.90;;;;;;6214340;23;20446;-73
2023/07/22 12:38:23;;;;;;;13.95;5.68;;;35.40;59.40;;;;;;6214915;23;20450;-75
2023/07/22 12:40:49;;;;;;;18.90;7.05;;;35.50;59.30;;;;;;6214777;23;20007;-75